Time;durP1;ratioP1;P1;durP2;ratioP2;P2;SDS_P1;SDS_P2;PMS_P1;PMS_P2;Temp;Humidity;BMP_temperature;BMP_pressure;BME280_temperature;BME280_humidity;BME280_pressure;Samples;Min_cycle;Max_cycle;Signal;HPM_P1;HPM_P2
2021/08/13 00:02:07;;;;;;;12.38;6.05;;;19.30;99.90;;;;;;5051502;28;20219;-76
2021/08/13 00:04:34;;;;;;;14.65;7.28;;;19.20;99.90;;;;;;5050542;28;20210;-76
2021/08/13 00:07:00;;;;;;;12.55;5.85;;;19.20;99.90;;;;;;5050652;28;20202;-76
2021/08/13 00:09:27;;;;;;;13.00;6.28;;;19.30;99.90;;;;;;5051708;28;20237;-76
2021/08/13 00:11:55;;;;;;;13.63;6.35;;;19.30;99.90;;;;;;5050863;28;20209;-76
2021/08/13 00:14:22;;;;;;;12.68;6.55;;;19.30;99.90;;;;;;5050597;28;20207;-77
2021/08/13 00:16:49;;;;;;;13.25;6.70;;;19.30;99.90;;;;;;5051204;28;20203;-77
2021/08/13 00:19:16;;;;;;;8.60;6.32;;;19.40;99.90;;;;;;5050551;28;20199;-76
2021/08/13 00:21:44;;;;;;;12.98;6.45;;;19.40;99.90;;;;;;5051212;28;20203;-76
2021/08/13 00:24:11;;;;;;;11.75;6.25;;;19.40;99.90;;;;;;5049418;28;20199;-77
2021/08/13 00:26:38;;;;;;;13.82;6.78;;;19.40;99.90;;;;;;5053998;28;20204;-76
2021/08/13 00:29:06;;;;;;;11.48;6.07;;;19.40;99.90;;;;;;5049718;28;21178;-77
2021/08/13 00:31:33;;;;;;;9.60;6.68;;;19.30;99.90;;;;;;5159149;22;20220;-74
2021/08/13 00:33:59;;;;;;;13.15;6.85;;;19.20;99.90;;;;;;5090746;28;20209;-74
2021/08/13 00:36:26;;;;;;;15.93;7.18;;;19.10;99.90;;;;;;5083454;28;20291;-74
2021/08/13 00:38:54;;;;;;;10.25;6.80;;;19.10;99.90;;;;;;5091354;28;20198;-74
2021/08/13 00:41:21;;;;;;;15.40;6.78;;;19.10;99.90;;;;;;5088645;28;20255;-74
2021/08/13 00:43:48;;;;;;;16.35;7.07;;;19.10;99.90;;;;;;5088758;28;20693;-74
2021/08/13 00:46:16;;;;;;;14.23;6.68;;;19.10;99.90;;;;;;5087135;28;20205;-74
2021/08/13 00:48:43;;;;;;;12.68;7.20;;;19.00;99.90;;;;;;5077357;28;20205;-74
2021/08/13 00:51:10;;;;;;;10.48;6.22;;;19.00;99.90;;;;;;5072715;28;20228;-74
2021/08/13 00:53:37;;;;;;;13.05;7.32;;;18.90;99.90;;;;;;5087523;28;20190;-74
2021/08/13 00:56:05;;;;;;;14.50;6.90;;;19.00;99.90;;;;;;5090770;28;20203;-74
2021/08/13 00:58:32;;;;;;;10.85;6.93;;;18.90;99.90;;;;;;5070141;28;20194;-74
2021/08/13 01:00:59;;;;;;;11.85;7.60;;;18.90;99.90;;;;;;5081216;28;20210;-74
2021/08/13 01:03:28;;;;;;;13.98;6.70;;;18.80;99.90;;;;;;5084936;28;20224;-74
2021/08/13 01:05:55;;;;;;;13.98;7.47;;;18.90;99.90;;;;;;5082713;28;20277;-75
2021/08/13 01:08:22;;;;;;;19.20;7.47;;;18.90;99.90;;;;;;5081917;28;20289;-75
2021/08/13 01:10:57;;;;;;;11.73;6.60;;;18.80;99.90;;;;;;5089265;28;20209;-75
2021/08/13 01:13:30;;;;;;;12.27;7.50;;;18.80;99.90;;;;;;5081662;28;20199;-75
2021/08/13 01:16:01;;;;;;;14.10;7.13;;;18.80;99.90;;;;;;5074016;28;20561;-74
2021/08/13 01:18:32;;;;;;;12.68;6.78;;;18.60;99.90;;;;;;5083009;28;20208;-74
2021/08/13 01:21:28;;;;;;;12.00;6.88;;;18.60;99.90;;;;;;5087737;28;20207;-74
2021/08/13 01:23:58;;;;;;;14.52;6.95;;;18.50;99.90;;;;;;5071104;28;20225;-75
2021/08/13 01:26:29;;;;;;;12.45;6.35;;;18.50;99.90;;;;;;5078002;28;20201;-74
2021/08/13 01:29:03;;;;;;;13.63;7.57;;;18.30;99.90;;;;;;5094520;28;20201;-76
2021/08/13 01:31:38;;;;;;;11.00;6.60;;;18.20;99.90;;;;;;5093528;28;20297;-79
2021/08/13 01:34:08;;;;;;;16.98;7.50;;;18.10;99.90;;;;;;5078235;28;20289;-76
2021/08/13 01:36:35;;;;;;;9.50;6.45;;;18.10;99.90;;;;;;5088056;28;20208;-77
2021/08/13 01:39:04;;;;;;;14.90;7.20;;;18.10;99.90;;;;;;5092036;28;21745;-76
2021/08/13 01:41:34;;;;;;;11.93;7.20;;;18.00;99.90;;;;;;5093339;28;20561;-76
2021/08/13 01:44:02;;;;;;;12.00;6.82;;;17.90;99.90;;;;;;5075642;28;20224;-77
2021/08/13 01:46:29;;;;;;;11.40;7.18;;;17.80;99.90;;;;;;5093856;28;20544;-76
2021/08/13 01:48:58;;;;;;;11.43;7.20;;;17.80;99.90;;;;;;5089900;28;20298;-76
2021/08/13 01:51:26;;;;;;;11.70;6.68;;;17.80;99.90;;;;;;5090998;28;20565;-76
2021/08/13 01:53:54;;;;;;;9.77;6.68;;;17.80;99.90;;;;;;5088328;28;20280;-76
2021/08/13 01:56:22;;;;;;;12.18;6.85;;;17.70;99.90;;;;;;5089230;28;20200;-76
2021/08/13 01:58:49;;;;;;;15.57;7.53;;;17.80;99.90;;;;;;5094725;28;20193;-76
2021/08/13 02:01:17;;;;;;;12.55;7.53;;;17.70;99.90;;;;;;5099413;28;20205;-76
2021/08/13 02:03:44;;;;;;;11.45;7.15;;;17.70;99.90;;;;;;5086184;28;20698;-76
2021/08/13 02:06:12;;;;;;;12.25;7.28;;;17.70;99.90;;;;;;5088296;28;20197;-76
2021/08/13 02:08:42;;;;;;;12.48;7.47;;;17.70;99.90;;;;;;5091732;28;20197;-76
2021/08/13 02:11:09;;;;;;;13.57;7.60;;;17.70;99.90;;;;;;5091062;28;20205;-76
2021/08/13 02:13:37;;;;;;;14.05;7.90;;;17.50;99.90;;;;;;5089740;28;20206;-76
2021/08/13 02:16:09;;;;;;;13.93;7.15;;;17.40;99.90;;;;;;5088915;28;21048;-76
2021/08/13 02:18:38;;;;;;;10.45;7.38;;;17.40;99.90;;;;;;5082629;28;20669;-76
2021/08/13 02:21:11;;;;;;;11.95;7.85;;;17.40;99.90;;;;;;5082423;28;20462;-76
2021/08/13 02:23:39;;;;;;;9.55;7.13;;;17.40;99.90;;;;;;5091429;28;20221;-76
2021/08/13 02:26:07;;;;;;;16.38;8.05;;;17.30;99.90;;;;;;5092559;28;20788;-76
2021/08/13 02:28:34;;;;;;;13.00;7.85;;;17.20;99.90;;;;;;5093314;28;20213;-76
2021/08/13 02:31:01;;;;;;;10.82;7.32;;;17.20;99.90;;;;;;5083343;28;20638;-76
2021/08/13 02:33:28;;;;;;;10.80;7.00;;;17.10;99.90;;;;;;5082453;28;20202;-76
2021/08/13 02:36:02;;;;;;;10.15;7.40;;;17.10;99.90;;;;;;5089772;28;20208;-76
2021/08/13 02:38:37;;;;;;;9.55;6.95;;;17.00;99.90;;;;;;5092639;28;20212;-76
2021/08/13 02:41:08;;;;;;;13.95;7.43;;;16.90;99.90;;;;;;5092109;28;20200;-76
2021/08/13 02:43:38;;;;;;;13.00;7.22;;;16.80;99.90;;;;;;5072985;28;20222;-76
2021/08/13 02:46:07;;;;;;;12.38;7.43;;;16.70;99.90;;;;;;5089298;28;20210;-76
2021/08/13 02:48:37;;;;;;;12.88;7.68;;;16.60;99.90;;;;;;5092190;28;20670;-76
2021/08/13 02:51:05;;;;;;;12.35;7.75;;;16.60;99.90;;;;;;5089203;28;20245;-76
2021/08/13 02:53:38;;;;;;;12.98;7.55;;;16.40;99.90;;;;;;5080799;28;20702;-76
2021/08/13 02:56:08;;;;;;;13.95;7.68;;;16.10;99.90;;;;;;5091837;28;20609;-76
2021/08/13 02:58:41;;;;;;;14.05;7.30;;;16.00;99.90;;;;;;5092252;28;20674;-76
2021/08/13 03:01:09;;;;;;;12.63;7.20;;;16.20;99.90;;;;;;5091354;28;20202;-76
2021/08/13 03:03:36;;;;;;;10.48;7.55;;;16.30;99.90;;;;;;5083644;28;20217;-76
2021/08/13 03:06:05;;;;;;;12.10;8.30;;;16.40;99.90;;;;;;5091505;28;20208;-76
2021/08/13 03:08:32;;;;;;;13.65;8.25;;;16.30;99.90;;;;;;5091637;28;20205;-76
2021/08/13 03:11:00;;;;;;;14.48;7.82;;;16.40;99.90;;;;;;5090846;28;20651;-76
2021/08/13 03:13:30;;;;;;;12.35;7.75;;;16.50;99.90;;;;;;5089563;28;20201;-76
2021/08/13 03:15:58;;;;;;;10.73;8.23;;;16.60;99.90;;;;;;5075526;28;20663;-76
2021/08/13 03:18:27;;;;;;;11.30;7.97;;;16.60;99.90;;;;;;5087540;28;20209;-76
2021/08/13 03:20:54;;;;;;;11.90;7.65;;;16.70;99.90;;;;;;5081227;28;20213;-76
2021/08/13 03:23:21;;;;;;;13.50;7.90;;;16.70;99.90;;;;;;5091150;28;20217;-76
2021/08/13 03:25:48;;;;;;;10.73;7.57;;;16.60;99.90;;;;;;5090449;28;20194;-76
2021/08/13 03:28:16;;;;;;;10.65;7.45;;;16.60;99.90;;;;;;5083919;28;20198;-76
2021/08/13 03:30:46;;;;;;;14.27;8.15;;;16.50;99.90;;;;;;5083984;28;20276;-76
2021/08/13 03:33:14;;;;;;;11.88;7.93;;;16.50;99.90;;;;;;5080687;28;20206;-76
2021/08/13 03:35:43;;;;;;;11.70;8.10;;;16.50;99.90;;;;;;5085465;28;20202;-76
2021/08/13 03:38:11;;;;;;;14.82;8.82;;;16.50;99.90;;;;;;5091231;28;20201;-76
2021/08/13 03:40:38;;;;;;;11.18;8.13;;;16.40;99.90;;;;;;5088198;28;20213;-76
2021/08/13 03:43:05;;;;;;;15.68;8.35;;;16.30;99.90;;;;;;5071553;28;20214;-76
2021/08/13 03:45:32;;;;;;;14.13;8.02;;;16.10;99.90;;;;;;5072922;28;20632;-76
2021/08/13 03:48:00;;;;;;;14.98;8.27;;;16.00;99.90;;;;;;5092021;28;20228;-75
2021/08/13 03:50:27;;;;;;;12.85;8.60;;;15.90;99.90;;;;;;5091748;28;20205;-76
2021/08/13 03:52:54;;;;;;;14.25;8.07;;;16.00;99.90;;;;;;5091746;28;20596;-76
2021/08/13 03:55:20;;;;;;;12.63;8.30;;;16.20;99.90;;;;;;5091390;28;20205;-76
2021/08/13 03:57:47;;;;;;;14.68;8.95;;;16.00;99.90;;;;;;5091308;28;20209;-76
2021/08/13 04:00:15;;;;;;;12.23;8.52;;;16.10;99.90;;;;;;5090818;28;20205;-76
2021/08/13 04:02:42;;;;;;;11.85;8.18;;;16.30;99.90;;;;;;5089758;28;20386;-75
2021/08/13 04:05:11;;;;;;;15.50;8.88;;;16.50;99.90;;;;;;5084533;28;20255;-76
2021/08/13 04:07:38;;;;;;;11.50;8.60;;;16.60;99.90;;;;;;5089712;28;20201;-75
2021/08/13 04:10:06;;;;;;;14.30;8.48;;;16.60;99.90;;;;;;5088135;28;20209;-76
2021/08/13 04:12:33;;;;;;;11.07;8.05;;;16.70;99.90;;;;;;5076584;28;20199;-76
2021/08/13 04:15:00;;;;;;;13.48;8.07;;;16.50;99.90;;;;;;5087721;28;20197;-80
2021/08/13 04:17:27;;;;;;;12.25;8.60;;;16.70;99.90;;;;;;5073044;28;20209;-80
2021/08/13 04:19:53;;;;;;;17.00;8.45;;;16.90;99.90;;;;;;5075458;28;20205;-80
2021/08/13 04:22:22;;;;;;;10.13;7.65;;;16.80;99.90;;;;;;5089154;28;20754;-80
2021/08/13 04:24:48;;;;;;;12.27;8.25;;;16.80;99.90;;;;;;5086862;28;20227;-80
2021/08/13 04:27:15;;;;;;;10.82;8.10;;;16.80;99.90;;;;;;5076342;28;20562;-80
2021/08/13 04:29:42;;;;;;;12.88;8.35;;;16.80;99.90;;;;;;5090318;28;20211;-80
2021/08/13 04:32:09;;;;;;;11.40;7.70;;;16.80;99.90;;;;;;5084999;28;20579;-80
2021/08/13 04:34:36;;;;;;;11.82;8.30;;;16.70;99.90;;;;;;5090086;28;20198;-80
2021/08/13 04:37:03;;;;;;;10.65;7.35;;;16.70;99.90;;;;;;5083749;28;20784;-80
2021/08/13 04:39:31;;;;;;;12.13;8.05;;;16.80;99.90;;;;;;5090791;28;20209;-81
2021/08/13 04:41:58;;;;;;;12.35;7.85;;;16.80;99.90;;;;;;5092504;28;20201;-81
2021/08/13 04:44:25;;;;;;;13.82;7.13;;;16.70;99.90;;;;;;5094259;28;20248;-80
2021/08/13 04:46:52;;;;;;;11.77;7.78;;;16.80;99.90;;;;;;5093760;28;20213;-80
2021/08/13 04:49:19;;;;;;;27.00;18.13;;;16.90;99.90;;;;;;5087742;28;20821;-80
2021/08/13 04:51:45;;;;;;;17.80;12.05;;;16.80;99.90;;;;;;5088771;28;20202;-81
2021/08/13 04:54:12;;;;;;;14.43;8.65;;;16.80;99.90;;;;;;5093380;28;20635;-80
2021/08/13 04:56:41;;;;;;;10.98;7.20;;;16.80;99.90;;;;;;5089814;28;20202;-81
2021/08/13 04:59:07;;;;;;;11.48;7.90;;;16.80;99.90;;;;;;5074466;28;20202;-80
2021/08/13 05:01:34;;;;;;;11.63;7.22;;;16.80;99.90;;;;;;5085066;28;20208;-81
2021/08/13 05:04:04;;;;;;;10.18;7.82;;;16.80;99.90;;;;;;5094032;28;20218;-80
2021/08/13 05:06:30;;;;;;;11.18;7.60;;;16.90;99.90;;;;;;5093488;28;20209;-80
2021/08/13 05:08:57;;;;;;;12.95;7.95;;;17.40;99.90;;;;;;5094958;28;20256;-80
2021/08/13 05:11:24;;;;;;;10.98;7.13;;;17.90;99.90;;;;;;5083461;28;20205;-80
2021/08/13 05:13:52;;;;;;;10.88;7.13;;;17.80;99.90;;;;;;5089400;28;20197;-80
2021/08/13 05:16:19;;;;;;;10.13;7.07;;;17.90;99.90;;;;;;5093489;28;20297;-80
2021/08/13 05:18:46;;;;;;;12.30;7.45;;;17.80;99.90;;;;;;5083260;28;20199;-81
2021/08/13 05:21:13;;;;;;;12.35;7.93;;;17.80;99.90;;;;;;5087934;28;20209;-81
2021/08/13 05:23:40;;;;;;;13.40;8.05;;;17.60;99.90;;;;;;5076613;28;20198;-80
2021/08/13 05:26:07;;;;;;;21.02;9.13;;;17.70;99.90;;;;;;5082088;28;20205;-81
2021/08/13 05:28:34;;;;;;;13.23;8.57;;;17.60;99.90;;;;;;5092902;28;20301;-80
2021/08/13 05:31:02;;;;;;;12.45;8.32;;;17.60;99.90;;;;;;5093613;28;20206;-80
2021/08/13 05:33:29;;;;;;;11.95;8.80;;;17.60;99.90;;;;;;5092424;28;20305;-80
2021/08/13 05:35:55;;;;;;;14.60;7.97;;;17.60;99.90;;;;;;5091399;28;20213;-80
2021/08/13 05:38:22;;;;;;;10.63;8.02;;;17.70;99.90;;;;;;5092363;28;20211;-80
2021/08/13 05:40:49;;;;;;;10.57;8.02;;;17.80;99.90;;;;;;5087127;28;20201;-80
2021/08/13 05:43:16;;;;;;;11.90;8.15;;;17.80;99.90;;;;;;5087281;28;20202;-75
2021/08/13 05:45:43;;;;;;;11.38;8.13;;;17.90;99.90;;;;;;5091309;28;20589;-80
2021/08/13 05:48:11;;;;;;;11.73;7.93;;;17.90;99.90;;;;;;5088385;28;20590;-73
2021/08/13 05:50:38;;;;;;;12.32;8.25;;;17.80;99.90;;;;;;5089104;28;20285;-75
2021/08/13 05:53:05;;;;;;;11.73;7.97;;;17.80;99.90;;;;;;5086088;28;20209;-75
2021/08/13 05:55:32;;;;;;;12.18;7.40;;;17.80;99.90;;;;;;5087346;28;20623;-75
2021/08/13 05:57:59;;;;;;;12.55;8.52;;;17.90;99.90;;;;;;5093019;28;20721;-73
2021/08/13 06:00:26;;;;;;;22.42;8.43;;;17.80;99.90;;;;;;5090058;28;20198;-74
2021/08/13 06:02:58;;;;;;;12.93;8.95;;;17.90;99.90;;;;;;5091681;28;20247;-73
2021/08/13 06:05:26;;;;;;;22.77;14.55;;;18.00;99.90;;;;;;5087107;28;20253;-74
2021/08/13 06:07:55;;;;;;;12.90;8.52;;;18.00;99.90;;;;;;5091312;28;20205;-73
2021/08/13 06:10:22;;;;;;;11.00;8.10;;;18.10;99.90;;;;;;5092340;28;20666;-74
2021/08/13 06:12:50;;;;;;;15.10;7.50;;;18.20;99.90;;;;;;5077655;28;20241;-74
2021/08/13 06:15:18;;;;;;;15.23;7.85;;;18.30;99.90;;;;;;5086130;28;20198;-73
2021/08/13 06:17:45;;;;;;;11.13;7.97;;;18.40;99.90;;;;;;5087343;28;20195;-73
2021/08/13 06:20:14;;;;;;;12.73;7.53;;;18.40;99.90;;;;;;5090930;28;20239;-73
2021/08/13 06:22:43;;;;;;;12.27;8.02;;;18.50;99.90;;;;;;5093948;28;20248;-73
2021/08/13 06:25:11;;;;;;;12.27;9.07;;;18.60;99.90;;;;;;5091451;28;20249;-73
2021/08/13 06:27:41;;;;;;;14.40;7.78;;;18.60;99.90;;;;;;5089665;28;20205;-73
2021/08/13 06:30:11;;;;;;;13.38;8.00;;;18.60;99.90;;;;;;5092710;28;20651;-73
2021/08/13 06:32:38;;;;;;;13.32;8.63;;;18.60;99.90;;;;;;5090155;28;20752;-73
2021/08/13 06:35:06;;;;;;;11.40;8.55;;;18.70;99.90;;;;;;5090411;28;20224;-73
2021/08/13 06:37:33;;;;;;;13.00;9.20;;;18.80;99.90;;;;;;5084159;28;20350;-73
2021/08/13 06:40:02;;;;;;;11.57;8.70;;;18.90;99.90;;;;;;5088251;28;20201;-73
2021/08/13 06:42:29;;;;;;;12.07;8.45;;;19.10;99.90;;;;;;5085809;28;20198;-74
2021/08/13 06:44:56;;;;;;;11.05;8.20;;;19.20;99.90;;;;;;5088129;28;20217;-73
2021/08/13 06:47:23;;;;;;;11.23;7.88;;;19.40;99.90;;;;;;5088350;28;20210;-74
2021/08/13 06:49:50;;;;;;;11.90;7.75;;;19.40;99.90;;;;;;5084167;28;20202;-74
2021/08/13 06:52:17;;;;;;;12.07;7.63;;;19.70;99.90;;;;;;5089985;28;20627;-74
2021/08/13 06:54:44;;;;;;;11.43;8.30;;;19.80;99.90;;;;;;5084260;28;20210;-74
2021/08/13 06:57:12;;;;;;;12.07;8.05;;;20.10;99.90;;;;;;5087422;28;20236;-74
2021/08/13 06:59:39;;;;;;;12.73;8.05;;;20.10;99.90;;;;;;5088760;28;20201;-74
2021/08/13 07:02:06;;;;;;;12.93;8.85;;;20.20;99.90;;;;;;5087999;28;20201;-74
2021/08/13 07:04:33;;;;;;;11.43;7.40;;;20.30;99.90;;;;;;5094519;28;20262;-74
2021/08/13 07:07:00;;;;;;;9.95;7.63;;;20.50;99.90;;;;;;5088625;28;20198;-73
2021/08/13 07:09:27;;;;;;;12.02;7.35;;;20.60;99.90;;;;;;5084089;28;20238;-74
2021/08/13 07:11:54;;;;;;;10.23;7.10;;;20.80;99.90;;;;;;5085878;28;20206;-74
2021/08/13 07:14:23;;;;;;;10.75;7.30;;;21.00;99.90;;;;;;5086128;28;20201;-74
2021/08/13 07:16:50;;;;;;;10.82;7.60;;;21.20;99.90;;;;;;5078084;28;20683;-74
2021/08/13 07:19:17;;;;;;;12.38;7.97;;;21.20;99.90;;;;;;5082148;28;20228;-74
2021/08/13 07:21:44;;;;;;;10.10;7.53;;;21.40;99.90;;;;;;5081088;28;20212;-73
2021/08/13 07:24:12;;;;;;;11.20;7.97;;;21.60;99.90;;;;;;5081309;28;20638;-71
2021/08/13 07:26:39;;;;;;;11.60;8.02;;;21.80;99.90;;;;;;5083702;28;20660;-72
2021/08/13 07:29:06;;;;;;;12.88;8.15;;;21.90;99.90;;;;;;5083550;28;20216;-71
2021/08/13 07:31:35;;;;;;;13.18;7.78;;;22.00;99.90;;;;;;5080351;28;20671;-71
2021/08/13 07:34:02;;;;;;;10.10;7.72;;;22.00;99.90;;;;;;5085642;28;20548;-71
2021/08/13 07:36:29;;;;;;;11.30;7.40;;;22.00;99.90;;;;;;5080675;28;20263;-71
2021/08/13 07:38:56;;;;;;;11.52;7.60;;;22.10;99.90;;;;;;5083939;28;20615;-71
2021/08/13 07:41:23;;;;;;;9.40;7.25;;;22.10;99.90;;;;;;5076677;28;20464;-72
2021/08/13 07:43:50;;;;;;;14.10;8.40;;;22.10;99.90;;;;;;5074866;28;20607;-71
2021/08/13 07:46:17;;;;;;;11.30;7.65;;;22.30;99.90;;;;;;5082170;28;20221;-71
2021/08/13 07:48:46;;;;;;;12.10;7.60;;;22.50;99.90;;;;;;5088424;28;20202;-72
2021/08/13 07:51:13;;;;;;;10.85;7.82;;;22.60;99.90;;;;;;5081981;28;20605;-71
2021/08/13 07:53:40;;;;;;;11.30;7.85;;;22.60;99.90;;;;;;5083372;28;20720;-71
2021/08/13 07:56:07;;;;;;;14.00;8.10;;;22.60;99.90;;;;;;5082141;28;20349;-72
2021/08/13 07:58:34;;;;;;;8.75;7.13;;;22.70;99.90;;;;;;5083933;28;20201;-71
2021/08/13 08:01:01;;;;;;;9.43;7.80;;;22.70;99.90;;;;;;5083943;28;20567;-74
2021/08/13 08:03:28;;;;;;;12.32;7.68;;;22.80;99.90;;;;;;5086703;28;20206;-74
2021/08/13 08:05:57;;;;;;;10.02;7.78;;;22.90;99.90;;;;;;5080596;28;20305;-74
2021/08/13 08:08:24;;;;;;;9.27;7.15;;;23.10;99.90;;;;;;5081135;28;20606;-74
2021/08/13 08:10:51;;;;;;;10.63;7.68;;;23.10;99.90;;;;;;5077853;28;20201;-74
2021/08/13 08:13:19;;;;;;;13.95;7.75;;;23.20;99.90;;;;;;5075028;28;20255;-74
2021/08/13 08:15:47;;;;;;;10.32;7.50;;;23.30;99.90;;;;;;5073408;28;20214;-74
2021/08/13 08:18:14;;;;;;;9.02;6.80;;;23.50;99.90;;;;;;5074092;28;20739;-74
2021/08/13 08:20:41;;;;;;;10.88;7.28;;;23.60;99.90;;;;;;5082406;28;20214;-74
2021/08/13 08:23:10;;;;;;;9.05;6.70;;;23.70;99.90;;;;;;5086429;28;20209;-74
2021/08/13 08:25:37;;;;;;;11.68;6.95;;;23.90;99.90;;;;;;5085605;28;20487;-74
2021/08/13 08:28:05;;;;;;;10.55;7.32;;;23.90;99.90;;;;;;5086082;28;20584;-74
2021/08/13 08:30:33;;;;;;;8.90;7.28;;;24.00;99.90;;;;;;5090040;28;20283;-73
2021/08/13 08:33:00;;;;;;;8.57;7.05;;;24.10;99.90;;;;;;5071928;28;20218;-74
2021/08/13 08:35:27;;;;;;;8.98;6.75;;;24.20;99.90;;;;;;5082987;28;20202;-74
2021/08/13 08:37:55;;;;;;;10.52;6.90;;;24.30;99.90;;;;;;5088625;28;20259;-74
2021/08/13 08:40:26;;;;;;;9.07;6.47;;;24.40;99.90;;;;;;5085454;28;20200;-74
2021/08/13 08:42:56;;;;;;;12.63;6.70;;;24.50;99.90;;;;;;5079515;28;20210;-74
2021/08/13 08:45:24;;;;;;;10.05;6.72;;;24.60;99.90;;;;;;5078594;28;20664;-74
2021/08/13 08:47:53;;;;;;;9.90;6.72;;;24.70;99.90;;;;;;5081920;28;20213;-74
2021/08/13 08:50:22;;;;;;;9.88;6.78;;;24.70;99.90;;;;;;5076719;28;20218;-74
2021/08/13 08:52:49;;;;;;;9.80;7.07;;;24.80;99.90;;;;;;5078394;28;20263;-74
2021/08/13 08:55:17;;;;;;;7.80;6.10;;;25.00;99.90;;;;;;5079307;28;20235;-74
2021/08/13 08:57:47;;;;;;;8.15;6.53;;;25.00;99.90;;;;;;5078784;28;20643;-74
2021/08/13 09:00:15;;;;;;;10.60;6.57;;;25.30;99.90;;;;;;5077951;28;20209;-74
2021/08/13 09:02:43;;;;;;;10.85;6.30;;;25.50;99.90;;;;;;5080013;28;20575;-74
2021/08/13 09:05:11;;;;;;;8.38;6.10;;;25.70;99.90;;;;;;5079938;28;20225;-74
2021/08/13 09:07:39;;;;;;;8.35;5.88;;;26.00;99.90;;;;;;5081390;28;20310;-74
2021/08/13 09:10:08;;;;;;;12.45;6.25;;;26.20;99.90;;;;;;5076911;28;20206;-74
2021/08/13 09:12:35;;;;;;;8.63;6.53;;;26.30;99.90;;;;;;5081180;28;20555;-74
2021/08/13 09:15:06;;;;;;;8.38;6.75;;;26.60;99.90;;;;;;5079485;28;20206;-74
2021/08/13 09:17:34;;;;;;;10.57;6.57;;;27.00;99.90;;;;;;5078713;28;20213;-74
2021/08/13 09:20:01;;;;;;;8.13;6.15;;;27.10;99.90;;;;;;5077445;28;20217;-71
2021/08/13 09:22:28;;;;;;;8.05;5.80;;;27.50;99.90;;;;;;5080493;28;20226;-72
2021/08/13 09:24:56;;;;;;;11.10;6.18;;;27.70;99.90;;;;;;5084042;28;20252;-71
2021/08/13 09:27:26;;;;;;;7.43;6.32;;;27.50;99.90;;;;;;5080933;28;20260;-72
2021/08/13 09:30:25;;;;;;;11.48;7.53;;;27.70;99.90;;;;;;5083396;28;20206;-72
2021/08/13 09:32:57;;;;;;;8.82;6.28;;;27.90;99.90;;;;;;5041130;28;20207;-72
2021/08/13 09:35:35;;;;;;;11.38;7.10;;;27.90;99.90;;;;;;5074662;28;20210;-72
2021/08/13 09:38:03;;;;;;;12.32;6.30;;;28.20;99.90;;;;;;5089656;28;20721;-72
2021/08/13 09:40:38;;;;;;;10.10;6.05;;;28.20;99.90;;;;;;5091923;28;20197;-71
2021/08/13 09:43:05;;;;;;;8.82;5.70;;;28.20;99.90;;;;;;5092956;28;20668;-72
2021/08/13 10:00:01;;;;;;;8.15;6.65;;;28.30;99.90;;;;;;5127937;27;20568;-73
2021/08/13 10:02:34;;;;;;;9.02;6.88;;;29.20;99.90;;;;;;5112861;22;20230;-80
2021/08/13 10:05:02;;;;;;;10.85;7.25;;;29.50;99.90;;;;;;5056084;28;20569;-78
2021/08/13 10:07:45;;;;;;;9.18;6.82;;;29.70;99.90;;;;;;5047045;28;20234;-80
2021/08/13 10:10:13;;;;;;;7.88;6.03;;;29.70;99.90;;;;;;5045530;28;21318;-79
2021/08/13 10:12:43;;;;;;;8.60;6.22;;;29.30;99.90;;;;;;5046743;28;20207;-79
2021/08/13 10:15:13;;;;;;;7.47;6.10;;;29.50;99.90;;;;;;5062299;28;20198;-80
2021/08/13 10:17:40;;;;;;;7.95;6.45;;;30.10;99.90;;;;;;5052354;28;20206;-78
2021/08/13 10:20:08;;;;;;;7.63;6.70;;;29.60;99.90;;;;;;5049984;28;20724;-81
2021/08/13 10:22:35;;;;;;;9.50;6.03;;;29.70;99.90;;;;;;5046687;28;20195;-81
2021/08/13 10:25:03;;;;;;;15.50;12.55;;;29.90;99.90;;;;;;5027901;28;20212;-78
2021/08/13 10:27:30;;;;;;;9.13;6.88;;;30.10;99.90;;;;;;5028202;28;20312;-78
2021/08/13 10:29:58;;;;;;;9.32;6.53;;;30.30;99.90;;;;;;5027879;28;20219;-80
2021/08/13 10:32:26;;;;;;;9.48;6.93;;;30.40;99.90;;;;;;5030007;28;20265;-79
2021/08/13 10:34:53;;;;;;;9.73;6.65;;;30.30;99.90;;;;;;5030158;28;20208;-81
2021/08/13 10:37:25;;;;;;;8.88;7.38;;;30.30;99.90;;;;;;5027487;28;20207;-81
2021/08/13 10:39:56;;;;;;;10.05;6.70;;;30.20;99.90;;;;;;5027644;28;20234;-79
2021/08/13 10:42:27;;;;;;;7.47;6.18;;;30.20;99.90;;;;;;5031547;28;20222;-78
2021/08/13 10:44:59;;;;;;;10.63;7.13;;;30.20;99.90;;;;;;5033049;28;20293;-81
2021/08/13 10:47:33;;;;;;;9.18;6.95;;;29.60;99.90;;;;;;5059356;28;20228;-79
2021/08/13 10:50:01;;;;;;;7.70;6.55;;;29.40;99.90;;;;;;5059366;28;20662;-79
2021/08/13 10:52:36;;;;;;;9.65;6.75;;;29.40;99.90;;;;;;5047960;28;20294;-80
2021/08/13 10:55:04;;;;;;;9.68;7.18;;;29.60;99.90;;;;;;5047592;28;20206;-79
2021/08/13 10:58:00;;;;;;;7.32;6.13;;;30.10;99.90;;;;;;5048560;28;20203;-79
2021/08/13 11:00:26;;;;;;;9.98;6.32;;;30.50;99.90;;;;;;5008582;28;20238;-81
2021/08/13 11:03:20;;;;;;;8.15;6.18;;;30.70;99.90;;;;;;5024030;28;20302;-78
2021/08/13 11:05:51;;;;;;;7.90;6.20;;;30.30;99.90;;;;;;5035589;28;20716;-79
2021/08/13 11:08:18;;;;;;;9.50;6.70;;;30.50;99.90;;;;;;5035868;28;20230;-80
2021/08/13 11:10:57;;;;;;;10.05;6.20;;;30.80;99.90;;;;;;5031044;28;20234;-82
2021/08/13 11:13:24;;;;;;;10.43;6.53;;;30.60;99.90;;;;;;5037198;28;20588;-81
2021/08/13 11:15:51;;;;;;;8.20;6.38;;;30.10;99.90;;;;;;5022455;28;20487;-79
2021/08/13 11:18:32;;;;;;;11.07;7.07;;;30.20;99.90;;;;;;5030977;28;20238;-80
2021/08/13 11:21:00;;;;;;;9.25;6.35;;;30.10;99.90;;;;;;5021736;28;20272;-81
2021/08/13 11:23:27;;;;;;;6.57;5.72;;;29.50;99.90;;;;;;5033326;28;20200;-77
2021/08/13 11:25:55;;;;;;;7.70;6.43;;;29.80;99.90;;;;;;5034312;28;20199;-81
2021/08/13 11:28:23;;;;;;;9.48;7.22;;;29.90;99.90;;;;;;5024153;28;20230;-81
2021/08/13 11:30:52;;;;;;;8.00;5.70;;;30.60;99.90;;;;;;5029109;28;20287;-78
2021/08/13 11:33:41;;;;;;;9.30;6.32;;;30.60;99.90;;;;;;5024573;28;20223;-81
2021/08/13 11:36:08;;;;;;;8.02;6.13;;;30.30;99.90;;;;;;5023954;28;20270;-83
2021/08/13 11:38:59;;;;;;;10.35;7.03;;;30.40;99.90;;;;;;5026650;28;20234;-80
2021/08/13 11:41:27;;;;;;;8.40;6.25;;;31.10;99.90;;;;;;5031832;28;20294;-81
2021/08/13 11:43:56;;;;;;;11.85;6.38;;;30.50;99.90;;;;;;5031812;28;20303;-78
2021/08/13 11:46:28;;;;;;;10.00;6.60;;;30.70;99.90;;;;;;5025544;28;20269;-81
2021/08/13 11:48:58;;;;;;;8.55;6.22;;;30.70;99.90;;;;;;5025515;28;20238;-80
2021/08/13 11:51:27;;;;;;;9.75;6.63;;;30.80;99.90;;;;;;5019426;28;20749;-80
2021/08/13 11:53:54;;;;;;;7.55;5.72;;;30.70;99.90;;;;;;5032027;28;20283;-79
2021/08/13 11:56:26;;;;;;;9.43;6.90;;;31.00;99.90;;;;;;5036518;28;20306;-80
2021/08/13 11:59:00;;;;;;;10.05;6.28;;;30.40;99.90;;;;;;5015609;28;20310;-79
2021/08/13 12:01:27;;;;;;;9.88;6.80;;;30.30;99.90;;;;;;5032193;28;20588;-79
2021/08/13 12:03:54;;;;;;;8.20;6.75;;;30.20;99.90;;;;;;5031593;28;20231;-80
2021/08/13 12:06:22;;;;;;;9.70;7.28;;;30.30;99.90;;;;;;5027837;28;20310;-80
2021/08/13 12:08:50;;;;;;;9.52;7.18;;;30.10;99.90;;;;;;5031008;28;20286;-80
2021/08/13 12:11:24;;;;;;;11.98;7.10;;;30.10;99.90;;;;;;5030688;28;20661;-80
2021/08/13 12:13:51;;;;;;;10.98;7.40;;;30.50;99.90;;;;;;5032400;28;20216;-80
2021/08/13 12:16:19;;;;;;;8.90;6.78;;;30.40;99.90;;;;;;5031109;28;20290;-81
2021/08/13 12:18:47;;;;;;;10.10;7.13;;;30.50;99.90;;;;;;5028462;28;20255;-82
2021/08/13 12:21:15;;;;;;;8.45;6.82;;;30.40;99.90;;;;;;5018709;28;20228;-81
2021/08/13 12:23:55;;;;;;;10.32;6.78;;;30.60;99.90;;;;;;5031885;28;20218;-82
2021/08/13 12:26:26;;;;;;;10.35;7.18;;;30.60;99.90;;;;;;5031406;28;20603;-83
2021/08/13 12:28:53;;;;;;;10.40;7.07;;;30.50;99.90;;;;;;5025885;28;20238;-81
2021/08/13 12:31:20;;;;;;;9.15;6.75;;;30.80;99.90;;;;;;5029926;28;20276;-82
2021/08/13 12:33:54;;;;;;;12.15;7.57;;;30.40;99.90;;;;;;5031713;28;20652;-81
2021/08/13 12:36:21;;;;;;;10.10;7.25;;;30.20;99.90;;;;;;5021759;28;20610;-83
2021/08/13 12:38:48;;;;;;;11.95;7.82;;;29.50;99.90;;;;;;5031444;28;20768;-80
2021/08/13 12:41:19;;;;;;;8.63;6.72;;;29.60;99.90;;;;;;5031364;28;20243;-78
2021/08/13 12:43:47;;;;;;;10.07;6.72;;;30.20;99.90;;;;;;5032555;28;20217;-79
2021/08/13 12:46:14;;;;;;;8.90;6.43;;;30.20;99.90;;;;;;5031099;28;20214;-80
2021/08/13 12:48:43;;;;;;;10.82;6.65;;;30.20;99.90;;;;;;5042187;28;20227;-79
2021/08/13 12:51:24;;;;;;;8.15;6.75;;;30.20;99.90;;;;;;5052105;28;20592;-81
2021/08/13 12:53:51;;;;;;;9.45;6.88;;;30.30;99.90;;;;;;5039513;28;20199;-79
2021/08/13 12:56:21;;;;;;;9.43;6.43;;;30.20;99.90;;;;;;5032051;28;20263;-80
2021/08/13 12:58:48;;;;;;;11.20;7.82;;;30.00;99.90;;;;;;5015463;28;20775;-80
2021/08/13 13:01:27;;;;;;;9.80;6.85;;;29.90;99.90;;;;;;5025203;28;20213;-79